Time;durP1;ratioP1;P1;durP2;ratioP2;P2;SDS_P1;SDS_P2;PMS_P1;PMS_P2;Temp;Humidity;BMP_temperature;BMP_pressure;BME280_temperature;BME280_humidity;BME280_pressure;Samples;Min_cycle;Max_cycle;Signal;HPM_P1;HPM_P2
2022/04/16 00:01:09;;;;;;;16.73;9.27;;;;;;;8.32;69.83;103007.78;5029133;28;20124;-78
2022/04/16 00:03:34;;;;;;;13.10;9.43;;;;;;;8.32;69.94;103010.44;5040539;28;20610;-78
2022/04/16 00:06:00;;;;;;;17.30;9.50;;;;;;;8.29;69.17;103010.38;5050260;28;20037;-79
2022/04/16 00:08:28;;;;;;;13.95;9.50;;;;;;;8.24;69.95;103002.34;5032419;28;20033;-79
2022/04/16 00:10:54;;;;;;;17.17;10.45;;;;;;;8.19;70.41;103010.16;5050355;28;20032;-79
2022/04/16 00:13:22;;;;;;;13.05;9.63;;;;;;;8.16;70.64;103011.84;5050679;28;20333;-78
2022/04/16 00:15:55;;;;;;;19.60;9.35;;;;;;;8.15;70.38;103002.13;5050799;28;20025;-77
2022/04/16 00:18:21;;;;;;;14.23;9.50;;;;;;;8.12;70.36;103008.22;5037239;28;20033;-77
2022/04/16 00:20:51;;;;;;;15.13;10.38;;;;;;;8.10;71.29;103009.94;5052025;28;20416;-77
2022/04/16 00:23:21;;;;;;;14.80;9.80;;;;;;;8.06;70.95;103004.56;5032688;28;20033;-77
2022/04/16 00:25:48;;;;;;;13.00;9.00;;;;;;;8.03;71.12;103008.00;4999617;28;20338;-77
2022/04/16 00:28:14;;;;;;;14.27;9.98;;;;;;;8.01;70.81;103014.09;5033960;28;20167;-77
2022/04/16 00:30:40;;;;;;;18.60;10.57;;;;;;;7.96;71.17;103014.00;5016168;28;20033;-77
2022/04/16 00:33:12;;;;;;;15.02;10.00;;;;;;;7.92;71.38;103010.41;5032481;28;20558;-77
2022/04/16 00:35:39;;;;;;;20.63;10.75;;;;;;;7.91;71.37;103010.34;5016251;28;20025;-77
2022/04/16 00:38:05;;;;;;;13.32;10.20;;;;;;;7.90;71.07;103011.22;5032211;28;20033;-77
2022/04/16 00:40:31;;;;;;;12.93;9.00;;;;;;;7.86;70.78;103017.28;5033698;28;20063;-77
2022/04/16 00:42:57;;;;;;;17.13;10.68;;;;;;;7.86;71.33;103017.28;5032308;28;20042;-77
2022/04/16 00:45:23;;;;;;;17.15;10.55;;;;;;;7.82;71.13;103016.31;5035129;28;20079;-77
2022/04/16 00:47:48;;;;;;;17.23;10.55;;;;;;;7.80;71.26;103020.66;5031376;28;20433;-77
2022/04/16 00:50:14;;;;;;;18.13;11.10;;;;;;;7.77;71.64;103019.72;5032865;28;20261;-77
2022/04/16 00:52:40;;;;;;;20.00;11.68;;;;;;;7.74;72.13;103018.78;5032338;28;20041;-77
2022/04/16 00:55:08;;;;;;;15.57;10.90;;;;;;;7.70;72.35;103024.81;5015734;28;20111;-77
2022/04/16 00:57:36;;;;;;;14.75;10.57;;;;;;;7.68;72.01;103013.34;5032076;28;20465;-77
2022/04/16 01:00:03;;;;;;;15.57;11.98;;;;;;;7.66;72.49;103016.78;5032293;28;20127;-77
2022/04/16 01:02:29;;;;;;;18.75;11.95;;;;;;;7.65;73.13;103017.66;5033355;28;21862;-77
2022/04/16 01:04:54;;;;;;;15.88;11.38;;;;;;;7.62;72.74;103015.84;5032220;28;20053;-77
2022/04/16 01:07:24;;;;;;;16.58;12.10;;;;;;;7.60;73.00;103014.00;5033067;28;20033;-77
2022/04/16 01:09:50;;;;;;;17.38;11.82;;;;;;;7.57;73.21;103012.19;5033312;28;20158;-77
2022/04/16 01:12:16;;;;;;;15.90;11.55;;;;;;;7.55;72.88;103016.53;5031828;28;20238;-78
2022/04/16 01:14:41;;;;;;;19.17;12.02;;;;;;;7.52;73.19;103014.72;5032055;28;20064;-78
2022/04/16 01:17:07;;;;;;;18.35;12.73;;;;;;;7.51;72.26;103019.94;5031601;28;20427;-77
2022/04/16 01:19:34;;;;;;;17.15;11.98;;;;;;;7.49;73.32;103014.63;5033412;28;20099;-77
2022/04/16 01:22:00;;;;;;;21.45;12.40;;;;;;;7.47;72.90;103018.97;5026308;28;20400;-78
2022/04/16 01:24:26;;;;;;;23.00;12.23;;;;;;;7.46;72.53;103021.56;5048266;28;20113;-78
2022/04/16 01:26:51;;;;;;;15.90;11.70;;;;;;;7.42;73.29;103017.97;5032285;28;20554;-77
2022/04/16 01:29:17;;;;;;;17.67;11.85;;;;;;;7.38;73.36;103028.38;5032799;28;20043;-78
2022/04/16 01:31:43;;;;;;;15.70;11.77;;;;;;;7.35;73.33;103026.56;5033183;28;20409;-78
2022/04/16 01:34:08;;;;;;;17.77;12.13;;;;;;;7.33;73.24;103025.63;5031217;28;20076;-78
2022/04/16 01:36:34;;;;;;;16.63;12.00;;;;;;;7.29;72.96;103031.66;5033213;28;20071;-77
2022/04/16 01:39:01;;;;;;;15.90;11.73;;;;;;;7.24;73.88;103026.25;5031239;28;20605;-77
2022/04/16 01:41:28;;;;;;;15.95;11.85;;;;;;;7.24;73.97;103036.78;5014831;28;20353;-78
2022/04/16 01:43:54;;;;;;;16.40;12.30;;;;;;;7.22;73.93;103037.59;5030659;28;20112;-78
2022/04/16 01:46:21;;;;;;;19.55;12.75;;;;;;;7.19;74.26;103037.53;5041978;28;20052;-78
2022/04/16 01:48:49;;;;;;;17.63;13.02;;;;;;;7.18;74.48;103046.28;5032561;28;20043;-77
2022/04/16 01:51:17;;;;;;;18.02;12.57;;;;;;;7.16;74.40;103040.97;5043190;28;20040;-78
2022/04/16 01:53:44;;;;;;;17.05;12.73;;;;;;;7.15;75.40;103039.19;5052559;28;20029;-78
2022/04/16 01:56:11;;;;;;;21.40;13.70;;;;;;;7.14;74.91;103040.03;5034517;28;20140;-78
2022/04/16 01:58:39;;;;;;;19.63;12.95;;;;;;;7.10;74.99;103031.16;5050928;28;20033;-77
2022/04/16 02:01:05;;;;;;;19.52;14.02;;;;;;;7.06;75.07;103037.19;5034718;28;20563;-78
2022/04/16 02:03:32;;;;;;;19.45;12.20;;;;;;;7.05;74.78;103034.53;5040541;28;20021;-78
2022/04/16 02:05:57;;;;;;;19.75;13.32;;;;;;;7.02;75.54;103040.59;5030895;28;20200;-78
2022/04/16 02:08:23;;;;;;;22.95;13.27;;;;;;;6.99;76.03;103036.97;5032176;28;20497;-78
2022/04/16 02:10:49;;;;;;;19.45;13.35;;;;;;;6.98;75.90;103029.94;5032409;28;20042;-77
2022/04/16 02:13:14;;;;;;;21.65;13.80;;;;;;;6.94;75.83;103028.06;5030759;28;20124;-77
2022/04/16 02:15:39;;;;;;;18.70;14.60;;;;;;;6.93;75.78;103029.81;5031227;28;20122;-78
2022/04/16 02:18:06;;;;;;;21.23;14.05;;;;;;;6.93;76.39;103032.44;5030816;28;20041;-77
2022/04/16 02:20:31;;;;;;;22.35;14.20;;;;;;;6.89;76.24;103028.81;5030958;28;20423;-78
2022/04/16 02:22:57;;;;;;;19.00;14.15;;;;;;;6.87;76.57;103030.53;5050557;28;20041;-78
2022/04/16 02:25:25;;;;;;;19.35;14.23;;;;;;;6.85;76.65;103032.22;5033926;28;20041;-78
2022/04/16 02:27:51;;;;;;;19.30;14.07;;;;;;;6.83;76.15;103027.75;5050809;28;20123;-78
2022/04/16 02:30:18;;;;;;;19.90;13.73;;;;;;;6.83;76.54;103033.03;5051859;28;20029;-78
2022/04/16 02:32:52;;;;;;;18.95;13.88;;;;;;;6.81;76.58;103034.72;5034508;28;20025;-77
2022/04/16 02:35:18;;;;;;;19.83;13.20;;;;;;;6.79;77.02;103037.28;5031729;28;20464;-78
2022/04/16 02:37:44;;;;;;;20.85;13.80;;;;;;;6.78;76.46;103040.78;5030676;28;20392;-78
2022/04/16 02:40:10;;;;;;;23.98;14.70;;;;;;;6.76;77.10;103045.13;5031739;28;20045;-78
2022/04/16 02:42:37;;;;;;;22.58;14.13;;;;;;;6.74;76.92;103044.16;5031744;28;20029;-78
2022/04/16 02:47:48;;;;;;;19.98;13.65;;;;;;;6.68;77.03;103044.91;5046109;28;20103;-78
2022/04/16 02:50:13;;;;;;;19.25;13.18;;;;;;;6.67;77.61;103047.47;5047367;28;20500;-78
2022/04/16 02:52:39;;;;;;;21.67;14.52;;;;;;;6.64;76.95;103045.63;5030085;28;20485;-78
2022/04/16 02:55:05;;;;;;;21.23;13.98;;;;;;;6.61;77.46;103044.66;5031513;28;20124;-78
2022/04/16 02:57:31;;;;;;;18.20;13.45;;;;;;;6.58;76.35;103045.47;5013669;28;20037;-78
2022/04/16 02:59:57;;;;;;;22.05;14.80;;;;;;;6.56;77.34;103055.06;5031103;28;20044;-78
2022/04/16 03:02:23;;;;;;;19.73;14.27;;;;;;;6.54;76.77;103059.38;5033610;28;20037;-78
2022/04/16 03:04:50;;;;;;;23.15;14.63;;;;;;;6.52;76.99;103058.44;5049721;28;20183;-78
2022/04/16 03:07:18;;;;;;;20.80;14.85;;;;;;;6.50;77.32;103069.75;5017060;28;20041;-78
2022/04/16 03:09:44;;;;;;;21.58;13.70;;;;;;;6.48;77.35;103067.09;5051033;28;20132;-78
2022/04/16 03:12:10;;;;;;;25.02;15.32;;;;;;;6.45;77.87;103061.72;5049741;28;20037;-77
2022/04/16 03:17:32;;;;;;;22.30;14.32;;;;;;;6.43;77.88;103063.44;5035540;28;20414;-78
2022/04/16 03:20:06;;;;;;;22.25;15.52;;;;;;;6.41;77.45;103066.00;5049527;28;20044;-78
2022/04/16 03:22:36;;;;;;;21.13;15.13;;;;;;;6.38;78.21;103068.56;5034240;28;20055;-77
2022/04/16 03:25:09;;;;;;;22.23;15.23;;;;;;;6.36;78.92;103057.09;5029623;28;20026;-78
2022/04/16 03:27:34;;;;;;;23.80;15.07;;;;;;;6.32;78.51;103063.09;5013587;28;20382;-78
2022/04/16 03:30:01;;;;;;;21.05;14.57;;;;;;;6.32;78.35;103065.72;5029675;28;20041;-77
2022/04/16 03:32:26;;;;;;;23.77;16.10;;;;;;;6.28;78.66;103063.84;5012952;28;20131;-77
2022/04/16 03:34:52;;;;;;;20.20;15.15;;;;;;;6.27;78.11;103071.69;5029237;28;20037;-77
2022/04/16 03:37:17;;;;;;;21.85;14.43;;;;;;;6.24;78.27;103065.47;5029304;28;20033;-78
2022/04/16 03:39:44;;;;;;;21.77;15.48;;;;;;;6.22;78.98;103069.78;5029498;28;20508;-78
2022/04/16 03:42:10;;;;;;;23.98;15.50;;;;;;;6.19;78.48;103066.19;5029434;28;20448;-77
2022/04/16 03:44:37;;;;;;;21.45;14.63;;;;;;;6.19;78.94;103067.06;5032420;28;20404;-78
2022/04/16 03:47:03;;;;;;;25.98;14.95;;;;;;;6.18;78.55;103069.66;5039580;28;20041;-77
2022/04/16 03:49:29;;;;;;;20.70;14.73;;;;;;;6.15;78.44;103069.56;5049614;28;20084;-78
2022/04/16 03:51:54;;;;;;;28.50;16.02;;;;;;;6.13;78.74;103072.16;5039102;28;20073;-77
2022/04/16 04:00:00;;;;;;;20.88;16.45;;;;;;;6.06;79.21;103074.50;5036084;28;20408;-78
2022/04/16 04:02:30;;;;;;;22.85;16.23;;;;;;;6.02;79.62;103078.78;5039932;28;20048;-78
2022/04/16 04:04:56;;;;;;;24.48;15.90;;;;;;;5.99;79.59;103076.94;5055899;28;20037;-78
2022/04/16 04:07:22;;;;;;;21.63;14.85;;;;;;;5.97;79.00;103078.63;5039225;28;20493;-77
2022/04/16 04:09:47;;;;;;;21.83;16.42;;;;;;;5.95;80.37;103076.81;5023159;28;20365;-77
2022/04/16 04:12:14;;;;;;;23.63;16.90;;;;;;;5.92;80.52;103079.31;5057197;28;20443;-78
2022/04/16 04:14:41;;;;;;;25.02;17.38;;;;;;;5.92;80.62;103080.19;5055762;28;20082;-78
2022/04/16 04:17:07;;;;;;;27.23;14.80;;;;;;;5.93;80.42;103081.06;5022776;28;20037;-78
2022/04/16 04:19:40;;;;;;;25.27;16.38;;;;;;;5.89;80.06;103087.97;5057266;28;20124;-77
2022/04/16 04:22:08;;;;;;;24.67;16.23;;;;;;;5.89;80.34;103087.97;5043999;28;20033;-78
2022/04/16 04:24:33;;;;;;;22.65;15.35;;;;;;;5.85;79.53;103083.44;5019084;28;20071;-78
2022/04/16 04:27:00;;;;;;;25.73;17.80;;;;;;;5.84;80.16;103092.19;5037271;28;20501;-78
2022/04/16 04:29:29;;;;;;;25.88;17.60;;;;;;;5.84;80.65;103097.47;5036968;28;20121;-78
2022/04/16 04:31:55;;;;;;;24.75;16.85;;;;;;;5.81;80.56;103093.00;5037198;28;20056;-78
2022/04/16 04:34:21;;;;;;;23.10;16.98;;;;;;;5.78;80.05;103095.50;5035578;28;20030;-78
2022/04/16 04:36:46;;;;;;;24.70;17.38;;;;;;;5.77;80.66;103100.72;5019023;28;20083;-78
2022/04/16 04:39:12;;;;;;;28.23;17.08;;;;;;;5.77;81.14;103098.09;5035610;28;20335;-78
2022/04/16 04:41:39;;;;;;;25.00;16.48;;;;;;;5.74;80.24;103100.63;5036924;28;20120;-78
2022/04/16 04:44:05;;;;;;;27.90;17.10;;;;;;;5.73;80.49;103104.94;5035146;28;20034;-78
2022/04/16 04:46:31;;;;;;;23.73;17.92;;;;;;;5.74;81.67;103111.13;5044116;28;20083;-78
2022/04/16 04:48:57;;;;;;;28.35;17.95;;;;;;;5.72;81.69;103111.06;5038864;28;20424;-78
2022/04/16 04:51:23;;;;;;;26.70;17.15;;;;;;;5.72;81.34;103116.31;5044382;28;20053;-78
2022/04/16 04:53:49;;;;;;;23.63;17.25;;;;;;;5.72;81.37;103118.06;5035550;28;20107;-78
2022/04/16 04:56:14;;;;;;;28.35;18.05;;;;;;;5.70;81.73;103115.38;5035767;28;20133;-78
2022/04/16 04:58:39;;;;;;;23.77;17.60;;;;;;;5.70;81.50;103118.00;5035444;28;20037;-78
2022/04/16 05:01:05;;;;;;;27.92;17.92;;;;;;;5.70;81.20;103122.38;5018518;28;20432;-78
2022/04/16 05:03:30;;;;;;;28.45;18.48;;;;;;;5.69;82.38;103123.22;5043357;28;20116;-78
2022/04/16 05:05:56;;;;;;;25.88;18.45;;;;;;;5.66;82.43;103126.63;5053748;28;20111;-78
2022/04/16 05:08:21;;;;;;;28.67;19.17;;;;;;;5.66;81.53;103129.25;5052124;28;20128;-78
2022/04/16 05:10:47;;;;;;;25.77;18.58;;;;;;;5.66;81.90;103136.25;5052288;28;20048;-78
2022/04/16 05:13:12;;;;;;;27.58;17.73;;;;;;;5.66;82.27;103133.59;5035339;28;20048;-78
2022/04/16 05:15:38;;;;;;;26.63;18.70;;;;;;;5.65;82.05;103135.34;5052165;28;20037;-78
2022/04/16 05:18:03;;;;;;;26.65;18.65;;;;;;;5.69;82.77;103139.00;5035258;28;20076;-78
2022/04/16 05:20:29;;;;;;;27.25;16.63;;;;;;;5.68;81.75;103138.09;5051851;28;20053;-78
2022/04/16 05:22:54;;;;;;;29.02;18.25;;;;;;;5.71;82.17;103139.91;5035586;28;20503;-78
2022/04/16 05:25:20;;;;;;;26.55;18.73;;;;;;;5.73;81.98;103140.88;5032578;28;20049;-78
2022/04/16 05:27:46;;;;;;;25.10;17.52;;;;;;;5.76;82.40;103143.59;5028980;28;20049;-78
2022/04/16 05:30:22;;;;;;;27.05;19.50;;;;;;;5.78;83.22;103145.44;5032847;28;20025;-78
2022/04/16 05:32:50;;;;;;;33.67;20.27;;;;;;;5.80;82.97;103137.63;5050213;28;20037;-78
2022/04/16 05:35:16;;;;;;;33.35;20.25;;;;;;;5.82;83.05;103144.72;5034596;28;20369;-78
2022/04/16 05:37:42;;;;;;;29.40;19.90;;;;;;;5.85;83.57;103146.56;5052212;28;20029;-78
2022/04/16 05:40:10;;;;;;;30.70;20.65;;;;;;;5.89;83.77;103143.22;5034470;28;20155;-78
2022/04/16 05:42:43;;;;;;;31.02;20.17;;;;;;;5.94;84.22;103143.41;5032258;28;20041;-78
2022/04/16 05:45:10;;;;;;;29.80;20.80;;;;;;;5.96;84.31;103139.97;5021305;28;20466;-78
2022/04/16 05:47:35;;;;;;;33.92;21.10;;;;;;;5.99;84.21;103136.56;5019881;28;20080;-78
2022/04/16 05:50:01;;;;;;;31.90;20.95;;;;;;;6.03;84.23;103144.63;5034163;28;20458;-78
2022/04/16 05:52:27;;;;;;;31.88;21.80;;;;;;;6.07;84.60;103142.97;5034297;28;20056;-78
2022/04/16 05:54:53;;;;;;;32.17;22.05;;;;;;;6.12;84.86;103149.28;5017871;28;20125;-78
2022/04/16 05:57:23;;;;;;;32.10;22.55;;;;;;;6.16;84.98;103156.44;5031313;28;20055;-78
2022/04/16 05:59:49;;;;;;;32.33;22.05;;;;;;;6.24;85.27;103159.31;5031323;28;20045;-78
2022/04/16 06:02:15;;;;;;;35.03;23.05;;;;;;;6.28;84.90;103158.59;5031441;28;20030;-77
2022/04/16 06:04:40;;;;;;;36.20;22.20;;;;;;;6.37;84.61;103163.25;5032713;28;20133;-77
2022/04/16 06:07:06;;;;;;;32.67;23.15;;;;;;;6.44;84.33;103174.00;5014168;28;20144;-78
2022/04/16 06:09:31;;;;;;;30.50;22.65;;;;;;;6.51;85.42;103169.84;5030800;28;20120;-78
2022/04/16 06:12:05;;;;;;;33.33;21.88;;;;;;;6.60;85.12;103175.41;5016972;28;20045;-78
2022/04/16 06:14:31;;;;;;;32.10;23.13;;;;;;;6.67;85.27;103174.75;5030717;28;20033;-78
2022/04/16 06:16:57;;;;;;;33.78;24.73;;;;;;;6.78;85.41;103171.56;5031299;28;20029;-81
2022/04/16 06:19:23;;;;;;;31.17;22.75;;;;;;;6.85;84.99;103178.81;5032919;28;20485;-81
2022/04/16 06:21:49;;;;;;;33.20;24.38;;;;;;;6.93;84.75;103179.06;5023974;28;20041;-81
2022/04/16 06:24:15;;;;;;;37.53;25.08;;;;;;;7.01;85.46;103180.19;5052585;28;20045;-81
2022/04/16 06:26:42;;;;;;;38.08;24.73;;;;;;;7.09;85.45;103189.19;5052674;28;20364;-82
2022/04/16 06:29:08;;;;;;;34.28;23.77;;;;;;;7.16;85.37;103182.38;5051165;28;20040;-81
2022/04/16 06:31:33;;;;;;;32.53;22.92;;;;;;;7.25;84.42;103183.53;5052743;28;20155;-81
2022/04/16 06:33:59;;;;;;;35.80;23.88;;;;;;;7.35;85.12;103181.19;5051159;28;20113;-81
2022/04/16 06:36:24;;;;;;;42.95;25.95;;;;;;;7.43;84.99;103171.75;5051082;28;20056;-81
2022/04/16 06:38:50;;;;;;;37.30;24.17;;;;;;;7.51;84.51;103175.47;5051304;28;20442;-81
2022/04/16 06:41:15;;;;;;;33.50;24.00;;;;;;;7.63;84.32;103182.84;5051301;28;20037;-81
2022/04/16 06:43:41;;;;;;;33.08;23.33;;;;;;;7.74;83.80;103186.69;5041146;28;20445;-81
2022/04/16 06:46:07;;;;;;;35.38;24.63;;;;;;;7.81;84.69;103185.09;5037212;28;20029;-81
2022/04/16 06:48:32;;;;;;;36.35;25.38;;;;;;;7.90;84.78;103185.34;5034023;28;20056;-81
2022/04/16 06:50:58;;;;;;;36.97;24.77;;;;;;;7.97;83.99;103188.19;5040890;28;20490;-81
2022/04/16 06:53:26;;;;;;;36.33;23.25;;;;;;;8.05;83.60;103185.75;5030510;28;20041;-81
2022/04/16 06:55:52;;;;;;;34.50;23.73;;;;;;;8.13;82.63;103184.19;5014542;28;20037;-82
2022/04/16 06:58:17;;;;;;;36.58;24.52;;;;;;;8.26;83.15;103192.41;5032206;28;20128;-81
2022/04/16 07:00:43;;;;;;;35.65;24.48;;;;;;;8.33;82.85;103190.00;5032126;28;20038;-81
2022/04/16 07:03:08;;;;;;;32.70;23.75;;;;;;;8.43;82.39;103193.78;5039949;28;20045;-81
2022/04/16 07:05:34;;;;;;;32.75;23.83;;;;;;;8.55;82.27;103195.81;5031014;28;20055;-81
2022/04/16 07:07:59;;;;;;;33.22;22.92;;;;;;;8.63;81.75;103196.94;5035260;28;20032;-81
2022/04/16 07:10:25;;;;;;;33.00;22.15;;;;;;;8.76;80.50;103204.28;5026105;28;20122;-81
2022/04/16 07:12:50;;;;;;;35.08;23.52;;;;;;;8.87;81.49;103200.97;5036835;28;20057;-82
2022/04/16 07:15:16;;;;;;;35.08;23.52;;;;;;;8.95;80.20;103202.97;5029717;28;20481;-81
2022/04/16 07:17:41;;;;;;;30.95;23.05;;;;;;;9.03;80.04;103201.38;5029741;28;20119;-81
2022/04/16 07:20:08;;;;;;;32.33;22.48;;;;;;;9.14;79.70;103200.72;5038848;28;20056;-81
2022/04/16 07:22:34;;;;;;;37.63;23.45;;;;;;;9.22;79.12;103202.66;5026098;28;20051;-80
2022/04/16 07:25:00;;;;;;;29.40;20.55;;;;;;;9.29;78.95;103200.16;5034898;28;20056;-81
2022/04/16 07:27:26;;;;;;;29.23;22.48;;;;;;;9.37;78.80;103202.09;5033143;28;20095;-81
2022/04/16 07:29:58;;;;;;;33.90;21.58;;;;;;;9.44;77.91;103192.53;5028052;28;20032;-81
2022/04/16 07:32:27;;;;;;;33.38;22.13;;;;;;;9.54;77.92;103197.13;5051587;28;20037;-81
2022/04/16 07:34:52;;;;;;;33.83;21.35;;;;;;;9.65;78.02;103198.25;5051035;28;20041;-81
2022/04/16 07:37:18;;;;;;;28.50;19.92;;;;;;;9.75;76.48;103204.63;5049687;28;20044;-81
2022/04/16 07:39:43;;;;;;;38.50;20.92;;;;;;;9.83;76.13;103203.00;5049737;28;20102;-81
2022/04/16 07:42:09;;;;;;;29.63;20.63;;;;;;;9.91;75.78;103203.16;5033051;28;20037;-82
2022/04/16 07:44:37;;;;;;;30.13;19.80;;;;;;;10.00;75.68;103198.03;5045304;28;20311;-80
2022/04/16 07:47:03;;;;;;;29.23;18.60;;;;;;;10.05;74.99;103204.28;5037184;28;20041;-80
2022/04/16 07:49:28;;;;;;;27.30;19.08;;;;;;;10.13;75.01;103207.06;5030691;28;20094;-80
2022/04/16 07:51:54;;;;;;;28.65;19.42;;;;;;;10.20;74.56;103205.44;5029694;28;20041;-81
2022/04/16 07:54:19;;;;;;;27.77;19.23;;;;;;;10.25;74.16;103201.13;5030435;28;20033;-81
2022/04/16 07:56:45;;;;;;;27.52;19.17;;;;;;;10.30;74.10;103204.75;5013368;28;20431;-81
2022/04/16 07:59:12;;;;;;;27.92;18.83;;;;;;;10.36;74.14;103206.63;5014288;28;20109;-80
2022/04/16 08:01:37;;;;;;;26.75;18.92;;;;;;;10.43;72.65;103205.84;5015960;28;20072;-80
2022/04/16 08:04:03;;;;;;;25.60;18.10;;;;;;;10.49;73.62;103198.91;5030659;28;20304;-80
2022/04/16 08:06:29;;;;;;;24.73;18.30;;;;;;;10.62;72.51;103210.59;5033156;28;20423;-80
2022/04/16 08:09:00;;;;;;;28.23;18.80;;;;;;;10.72;72.88;103207.22;5012887;28;20041;-80
2022/04/16 08:11:28;;;;;;;26.98;19.58;;;;;;;10.84;72.78;103200.31;5030934;28;20090;-80
2022/04/16 08:13:54;;;;;;;28.48;19.00;;;;;;;10.96;72.22;103205.81;5041278;28;20025;-80
2022/04/16 08:16:19;;;;;;;26.27;17.33;;;;;;;11.01;71.48;103201.47;5032274;28;20063;-80
2022/04/16 08:18:44;;;;;;;28.85;19.45;;;;;;;11.08;71.16;103200.69;5032698;28;20080;-76
2022/04/16 08:21:10;;;;;;;27.70;18.40;;;;;;;11.20;72.01;103205.22;5044936;28;20041;-80
2022/04/16 08:23:43;;;;;;;26.63;18.63;;;;;;;11.31;70.06;103203.63;5031410;28;20500;-80
2022/04/16 08:26:10;;;;;;;27.55;18.15;;;;;;;11.41;70.36;103207.28;5033619;28;20052;-81
2022/04/16 08:28:35;;;;;;;25.58;17.05;;;;;;;11.48;69.52;103208.25;5049618;28;20049;-81
2022/04/16 08:31:01;;;;;;;22.95;17.02;;;;;;;11.55;69.29;103213.66;5033065;28;20059;-80
2022/04/16 08:33:26;;;;;;;23.00;16.25;;;;;;;11.62;68.78;103209.28;5050539;28;20049;-81
2022/04/16 08:35:52;;;;;;;23.63;16.88;;;;;;;11.70;68.35;103215.59;5050985;28;20033;-80
2022/04/16 08:38:17;;;;;;;26.80;18.00;;;;;;;11.79;67.93;103207.75;5019623;28;20492;-81
2022/04/16 08:40:43;;;;;;;21.13;15.38;;;;;;;11.87;67.22;103212.25;5053113;28;20487;-80
2022/04/16 08:43:09;;;;;;;23.80;15.95;;;;;;;11.97;67.13;103214.16;5036150;28;20128;-80
2022/04/16 08:45:36;;;;;;;25.25;17.45;;;;;;;12.08;66.43;103211.59;5040029;28;20101;-80
2022/04/16 08:48:03;;;;;;;26.70;16.35;;;;;;;12.17;66.40;103211.69;5036064;28;20065;-80
2022/04/16 08:50:29;;;;;;;22.95;15.80;;;;;;;12.30;66.28;103218.00;5047920;28;20049;-80
2022/04/16 08:52:55;;;;;;;20.35;15.48;;;;;;;12.42;65.88;103216.34;5016292;28;20045;-80
2022/04/16 08:55:20;;;;;;;20.60;15.70;;;;;;;12.57;65.71;103220.91;5033959;28;20037;-80
2022/04/16 08:57:46;;;;;;;22.83;16.05;;;;;;;12.69;65.38;103212.13;5032706;28;20501;-80
2022/04/16 09:00:13;;;;;;;21.65;15.45;;;;;;;12.78;64.74;103216.59;5034205;28;20047;-81
2022/04/16 09:02:49;;;;;;;22.88;16.33;;;;;;;12.87;64.63;103211.34;5022449;28;20041;-80
2022/04/16 09:05:18;;;;;;;19.48;15.32;;;;;;;12.94;63.42;103214.97;5053045;28;20044;-80
2022/04/16 09:07:45;;;;;;;21.65;15.55;;;;;;;13.03;64.23;103213.25;5052588;28;20439;-80
2022/04/16 09:10:11;;;;;;;21.50;15.32;;;;;;;13.15;63.06;103214.16;5052904;28;20044;-80
2022/04/16 09:12:38;;;;;;;19.15;14.55;;;;;;;13.24;63.20;103211.56;5052611;28;20045;-80
2022/04/16 09:15:08;;;;;;;19.52;14.73;;;;;;;13.32;62.55;103204.53;5052859;28;20033;-80
2022/04/16 09:17:33;;;;;;;17.73;13.32;;;;;;;13.50;61.41;103209.94;5052596;28;20037;-80
2022/04/16 09:19:59;;;;;;;18.15;12.98;;;;;;;13.59;60.93;103213.53;5053610;28;20087;-79
2022/04/16 09:22:31;;;;;;;19.77;13.35;;;;;;;13.73;61.05;103203.81;5005137;28;20073;-78
2022/04/16 09:24:57;;;;;;;21.52;13.55;;;;;;;13.81;59.39;103209.16;5032138;28;20132;-79
2022/04/16 09:27:22;;;;;;;16.25;12.43;;;;;;;13.85;59.71;103202.97;5033289;28;20457;-78
2022/04/16 09:29:48;;;;;;;22.80;12.85;;;;;;;13.94;59.48;103208.28;5033085;28;20067;-78
2022/04/16 09:32:24;;;;;;;20.58;12.90;;;;;;;13.90;60.18;103206.50;5031327;28;20370;-78
2022/04/16 09:34:52;;;;;;;22.88;13.43;;;;;;;14.01;59.21;103196.75;5031681;28;20113;-78
2022/04/16 09:37:19;;;;;;;15.52;11.95;;;;;;;14.19;59.24;103198.53;5033165;28;20362;-78
2022/04/16 09:39:44;;;;;;;17.13;12.43;;;;;;;14.40;58.90;103200.34;5032200;28;20033;-79
2022/04/16 09:42:10;;;;;;;16.58;11.77;;;;;;;14.56;57.08;103194.16;5031866;28;20033;-79
2022/04/16 09:44:35;;;;;;;16.80;11.98;;;;;;;14.61;57.28;103192.38;5035333;28;20041;-78
2022/04/16 09:47:03;;;;;;;16.25;10.63;;;;;;;14.71;55.56;103195.00;5044351;28;20397;-78
2022/04/16 09:49:33;;;;;;;16.20;10.82;;;;;;;14.83;55.78;103197.63;5051295;28;20076;-79
2022/04/16 09:52:04;;;;;;;16.42;11.38;;;;;;;14.79;54.19;103183.44;5033396;28;20144;-78
2022/04/16 09:54:31;;;;;;;16.23;9.73;;;;;;;14.89;54.54;103183.44;5032080;28;20068;-78
2022/04/16 09:57:01;;;;;;;12.00;8.77;;;;;;;14.97;53.91;103187.84;5033294;28;20059;-79
2022/04/16 09:59:35;;;;;;;12.98;9.25;;;;;;;15.11;52.78;103185.13;5033235;28;20483;-78
2022/04/16 10:02:03;;;;;;;13.70;9.20;;;;;;;15.22;52.13;103185.09;5034276;28;20069;-77
2022/04/16 10:04:29;;;;;;;11.65;8.93;;;;;;;15.17;51.91;103179.75;5051027;28;20033;-78
2022/04/16 10:06:55;;;;;;;10.90;8.00;;;;;;;15.13;51.58;103194.00;5034741;28;20033;-80
2022/04/16 10:09:22;;;;;;;12.63;9.07;;;;;;;15.08;51.85;103187.78;5034751;28;20063;-79
2022/04/16 10:15:01;;;;;;;14.23;8.75;;;;;;;14.59;53.22;103179.94;5051229;28;20039;-79
2022/04/16 10:17:49;;;;;;;13.00;8.68;;;;;;;14.71;53.18;103174.56;5052750;28;20047;-79
2022/04/16 10:20:19;;;;;;;10.77;7.60;;;;;;;15.03;51.87;103174.50;5052347;28;20108;-79
2022/04/16 10:22:58;;;;;;;10.10;7.40;;;;;;;15.35;51.53;103175.22;5051012;28;20052;-79
2022/04/16 10:25:31;;;;;;;9.65;6.85;;;;;;;15.66;50.22;103165.28;5038497;28;20461;-79
2022/04/16 10:28:16;;;;;;;8.90;6.50;;;;;;;15.97;49.18;103176.69;5030636;28;20120;-78
2022/04/16 10:30:52;;;;;;;9.90;5.40;;;;;;;16.11;48.62;103184.59;5032387;28;20113;-79
2022/04/16 10:33:31;;;;;;;8.32;5.47;;;;;;;16.21;47.13;103172.06;5030479;28;20120;-79
2022/04/16 10:36:02;;;;;;;7.78;5.38;;;;;;;16.21;45.91;103182.75;5032463;28;20108;-82
2022/04/16 10:38:40;;;;;;;8.07;5.65;;;;;;;16.41;45.37;103179.91;5031005;28;20393;-78
2022/04/16 10:41:11;;;;;;;5.63;3.80;;;;;;;16.57;44.24;103176.19;5031259;28;20056;-81
2022/04/16 10:43:37;;;;;;;6.38;4.05;;;;;;;16.65;43.04;103176.13;5031786;28;20116;-79
2022/04/16 10:46:04;;;;;;;7.00;5.38;;;;;;;16.35;43.25;103178.19;5028006;28;20128;-79
2022/04/16 10:48:41;;;;;;;5.90;4.47;;;;;;;16.29;45.29;103178.22;5030428;28;20489;-80
2022/04/16 10:51:09;;;;;;;7.57;4.30;;;;;;;16.29;42.51;103180.88;5036944;28;20571;-86
2022/04/16 10:53:37;;;;;;;10.13;4.50;;;;;;;16.18;42.77;103172.97;5038752;28;20116;-83
2022/04/16 10:56:17;;;;;;;6.45;4.30;;;;;;;16.27;45.11;103175.56;5031632;28;20021;-78
2022/04/16 10:58:45;;;;;;;6.90;4.83;;;;;;;16.31;43.56;103179.97;5050455;28;21201;-81
2022/04/16 11:01:13;;;;;;;5.70;4.13;;;;;;;16.15;42.69;103181.03;5032282;28;20206;-82
2022/04/16 11:03:44;;;;;;;5.90;4.47;;;;;;;16.17;43.61;103171.22;5034732;28;20665;-83
2022/04/16 11:06:10;;;;;;;8.98;4.70;;;;;;;16.28;45.09;103168.44;5029464;28;20235;-80
2022/04/16 11:08:41;;;;;;;7.93;4.82;;;;;;;16.60;44.70;103164.56;5029541;28;20458;-80
2022/04/16 11:11:08;;;;;;;8.40;4.43;;;;;;;17.00;43.39;103166.84;5051920;28;20234;-83
2022/04/16 11:13:35;;;;;;;7.22;4.45;;;;;;;17.16;41.92;103157.69;5034855;28;20025;-88
2022/04/16 11:16:01;;;;;;;6.22;4.55;;;;;;;17.24;40.47;103165.66;5034494;28;20552;-78
2022/04/16 11:18:42;;;;;;;9.60;5.05;;;;;;;17.26;42.42;103159.38;5051583;28;20029;-78
2022/04/16 11:21:09;;;;;;;7.60;4.80;;;;;;;17.36;41.25;103165.50;5048301;28;20040;-79
2022/04/16 11:23:43;;;;;;;8.50;5.05;;;;;;;17.59;41.98;103170.53;5013644;28;20176;-81
2022/04/16 11:34:28;;;;;;;6.93;4.88;;;;;;;18.15;40.50;103165.22;5033970;28;20428;-78
2022/04/16 11:36:54;;;;;;;8.27;5.63;;;;;;;18.22;39.24;103154.41;5042982;28;20032;-78
2022/04/16 11:39:26;;;;;;;6.90;4.60;;;;;;;18.15;40.39;103159.88;5049985;28;20444;-80